AirNav   Pilot Hours Calculator
 
 1353 users online  

42MI Turner Heliport
Birch Run, Michigan, USA

GOING TO BIRCH RUN?


FAA INFORMATION EFFECTIVE 05 DECEMBER 2019

Location

FAA Identifier: 42MI
Lat/Long: 43-17-27.9900N 083-44-25.9400W
43-17.466500N 083-44.432333W
43.2911083,-83.7405389
(estimated)
Elevation: 652 ft. / 199 m (estimated)
From city: 4 miles NE of BIRCH RUN, MI
Time zone: UTC -5 (UTC -4 during Daylight Saving Time)
Zip code: 48415

Heliport Operations

Heliport use: Private use. Permission required prior to landing
Activation date: 12/2015
Control tower: no
ARTCC: CLEVELAND CENTER
FSS: LANSING FLIGHT SERVICE STATION
Attendance: UNATNDD
Segmented circle: no

Heliport Communications

WX AWOS-3 at HYX (10 nm NW): 118.325 (989-752-3408)
WX AWOS-3 at CFS (16 nm NE): 119.275 (989-672-4182)
WX ASOS at FNT (20 nm S): PHONE 810-342-7804

Nearby radio navigation aids

VOR radial/distance  VOR name  Freq  Var
FNTr007/19.5FLINT VORTAC116.9006W
MBSr138/20.6SAGINAW VOR/DME112.9003W

Heliport Services

Runway Information

Helipad H1

Dimensions: 50 x 50 ft. / 15 x 15 m
Surface: turf
Traffic pattern: leftleft

Heliport Ownership and Management from official FAA records

Ownership: Privately-owned
Owner: JEFF TURNER
10720 BUSCH ROAD
BIRCH RUN, MI 48415
Phone 989-652-2049
Manager: JEFF TURNER
10720 BUSCH ROAD
BIRCH RUN, MI 48415
Phone 989-652-2049

Heliport Operational Statistics

Aircraft based on the field: 3
Single engine airplanes: 1
Jet airplanes: 1
Helicopters: 1
    
Aircraft operations: 150/year
100% local general aviation

Additional Remarks

FOR CD CTC GREAT LAKES APCH AT 269-459-3345, WHEN APCH CLSD CTC CLEVELAND ARTCC AT 440-774-0490

Instrument Procedures

There are no published instrument procedures at 42MI.

Some nearby airports with instrument procedures:

KHYX - Saginaw County H W Browne Airport (10 nm NW)
KCFS - Tuscola Area Airport (16 nm NE)
3CM - James Clements Municipal Airport (17 nm NW)
KFNT - Bishop International Airport (20 nm S)
KMBS - MBS International Airport (21 nm NW)
 
Loc | Ops | Rwys | IFR | FBO | Links
Com | Nav | Svcs | Stats | Notes
Aerial photo
No photo
 
Airport distance calculator
Flying to Turner Heliport? Find the distance to fly.

From to 42MI

Sunrise and sunset
Times for 09-Dec-2019
 Local
(UTC-5)
 Zulu
(UTC)
Morning civil twilight07:2412:24
Sunrise07:5612:56
Sunset16:5821:58
Evening civil twilight17:3122:31

Current date and time
Zulu (UTC)  09-Dec-2019 18:13:41
Local (UTC-5)  09-Dec-2019 13:13:41
 
METAR
KHYX 
10nm NW 
091756Z AUTO 17008KT 10SM -RA SCT010 BKN016 OVC025 08/07 A2941 RMK AO2
KCFS 
16nm NE 
091755Z AUTO 16008KT 7SM -RA SCT008 BKN014 OVC045 09/08 A2942 RMK AO2 T00900075 10090 20080
KFNT 
19nm S 
091800Z 19009KT 10SM -RA OVC015 10/07 A2943 RMK AO2 P0000 T01000072
TAF
KFNT 
19nm S 
091720Z 0918/1018 20011KT 3SM -RA BR BKN008 OVC018 FM092300 23012G20KT 6SM -DZ BR BKN012 OVC024 FM100300 27015G25KT P6SM OVC022 FM101200 29012G22KT P6SM SCT028 OVC040
KMBS 
21nm NW 
091720Z 0918/1018 21014KT 4SM -RA BR BKN008 OVC018 FM092300 23014G22KT 6SM -DZ BR BKN015 OVC026 FM100300 29015G24KT P6SM OVC026 FM101200 28012G22KT P6SM SCT030 OVC040
NOTAMs
Click for the latest NOTAMs
NOTAMs are issued by the DoD/FAA and will open in a separate window not controlled by AirNav.

 

 
 

Would you like to see your business listed on this page?

 If your business provides an interesting product or service to pilots, flight crews, aircraft, or users of the Turner Heliport, you should consider listing it here.  To start the listing process, click on the button below
 
Add a business
 

Other Pages about Turner Heliport

Update a link
 
Copyright © AirNav, LLC. All rights reserved. Privacy Policy  Contact